sensor_id;sensor_type;location;lat;lon;timestamp;temperature;humidity
41142;SHT31;63666;52.284;20.890;2023-05-19T00:00:28;22.74;45.60
41142;SHT31;63666;52.284;20.890;2023-05-19T00:03:20;22.69;45.61
41142;SHT31;63666;52.284;20.890;2023-05-19T00:05:56;22.69;45.47
41142;SHT31;63666;52.284;20.890;2023-05-19T00:08:32;22.66;45.40
41142;SHT31;63666;52.284;20.890;2023-05-19T00:11:12;22.62;45.42
41142;SHT31;63666;52.284;20.890;2023-05-19T00:13:46;22.60;45.34
41142;SHT31;63666;52.284;20.890;2023-05-19T00:16:21;22.60;45.25
41142;SHT31;63666;52.284;20.890;2023-05-19T00:18:57;22.55;45.31
41142;SHT31;63666;52.284;20.890;2023-05-19T00:21:32;22.51;45.25
41142;SHT31;63666;52.284;20.890;2023-05-19T00:24:07;22.48;45.24
41142;SHT31;63666;52.284;20.890;2023-05-19T00:26:42;22.45;45.27
41142;SHT31;63666;52.284;20.890;2023-05-19T00:29:16;22.43;45.25
41142;SHT31;63666;52.284;20.890;2023-05-19T00:31:49;22.40;45.30
41142;SHT31;63666;52.284;20.890;2023-05-19T00:34:24;22.40;45.24
41142;SHT31;63666;52.284;20.890;2023-05-19T00:36:59;22.40;45.22
41142;SHT31;63666;52.284;20.890;2023-05-19T00:39:33;22.41;45.15
41142;SHT31;63666;52.284;20.890;2023-05-19T00:42:10;22.37;45.05
41142;SHT31;63666;52.284;20.890;2023-05-19T00:44:43;22.30;45.23
41142;SHT31;63666;52.284;20.890;2023-05-19T00:47:17;22.26;45.32
41142;SHT31;63666;52.284;20.890;2023-05-19T00:49:50;22.23;45.41
41142;SHT31;63666;52.284;20.890;2023-05-19T00:52:24;22.24;45.43
41142;SHT31;63666;52.284;20.890;2023-05-19T00:54:59;22.22;45.50
41142;SHT31;63666;52.284;20.890;2023-05-19T00:57:34;22.19;45.57
41142;SHT31;63666;52.284;20.890;2023-05-19T01:00:12;22.17;45.59
41142;SHT31;63666;52.284;20.890;2023-05-19T01:02:46;22.13;45.61
41142;SHT31;63666;52.284;20.890;2023-05-19T01:05:22;22.10;45.62
41142;SHT31;63666;52.284;20.890;2023-05-19T01:07:56;22.08;45.63
41142;SHT31;63666;52.284;20.890;2023-05-19T01:10:30;22.05;45.67
41142;SHT31;63666;52.284;20.890;2023-05-19T01:13:03;22.03;45.68
41142;SHT31;63666;52.284;20.890;2023-05-19T01:15:39;22.01;45.65
41142;SHT31;63666;52.284;20.890;2023-05-19T01:18:30;21.99;45.65
41142;SHT31;63666;52.284;20.890;2023-05-19T01:21:19;21.98;45.68
41142;SHT31;63666;52.284;20.890;2023-05-19T01:24:16;21.95;45.70
41142;SHT31;63666;52.284;20.890;2023-05-19T01:27:20;21.93;45.72
41142;SHT31;63666;52.284;20.890;2023-05-19T01:30:23;21.93;45.70
41142;SHT31;63666;52.284;20.890;2023-05-19T01:33:01;21.90;45.75
41142;SHT31;63666;52.284;20.890;2023-05-19T01:35:37;21.88;45.76
41142;SHT31;63666;52.284;20.890;2023-05-19T01:38:15;21.86;45.75
41142;SHT31;63666;52.284;20.890;2023-05-19T01:40:50;21.85;45.75
41142;SHT31;63666;52.284;20.890;2023-05-19T01:43:25;21.84;45.77
41142;SHT31;63666;52.284;20.890;2023-05-19T01:45:59;21.83;45.77
41142;SHT31;63666;52.284;20.890;2023-05-19T01:48:34;21.82;45.79
41142;SHT31;63666;52.284;20.890;2023-05-19T01:51:08;21.81;45.80
41142;SHT31;63666;52.284;20.890;2023-05-19T01:53:41;21.78;45.80
41142;SHT31;63666;52.284;20.890;2023-05-19T01:56:18;21.77;45.81
41142;SHT31;63666;52.284;20.890;2023-05-19T01:58:59;21.76;45.80
41142;SHT31;63666;52.284;20.890;2023-05-19T02:01:47;21.75;45.82
41142;SHT31;63666;52.284;20.890;2023-05-19T02:04:28;21.73;45.83
41142;SHT31;63666;52.284;20.890;2023-05-19T02:07:11;21.72;45.85
41142;SHT31;63666;52.284;20.890;2023-05-19T02:09:53;21.70;45.81
41142;SHT31;63666;52.284;20.890;2023-05-19T02:12:35;21.70;45.86
41142;SHT31;63666;52.284;20.890;2023-05-19T02:15:12;21.67;45.89
41142;SHT31;63666;52.284;20.890;2023-05-19T02:17:50;21.69;45.81
41142;SHT31;63666;52.284;20.890;2023-05-19T02:20:26;21.67;45.81
41142;SHT31;63666;52.284;20.890;2023-05-19T02:23:00;21.66;45.82
41142;SHT31;63666;52.284;20.890;2023-05-19T02:25:36;21.66;45.81
41142;SHT31;63666;52.284;20.890;2023-05-19T02:28:10;21.66;45.90
41142;SHT31;63666;52.284;20.890;2023-05-19T02:30:45;21.63;46.01
41142;SHT31;63666;52.284;20.890;2023-05-19T02:33:22;21.61;45.98
41142;SHT31;63666;52.284;20.890;2023-05-19T02:35:58;21.60;45.98
41142;SHT31;63666;52.284;20.890;2023-05-19T02:38:32;21.60;45.99
41142;SHT31;63666;52.284;20.890;2023-05-19T02:41:06;21.59;45.99
41142;SHT31;63666;52.284;20.890;2023-05-19T02:43:39;21.58;45.98
41142;SHT31;63666;52.284;20.890;2023-05-19T02:46:17;21.57;46.00
41142;SHT31;63666;52.284;20.890;2023-05-19T02:48:55;21.57;46.00
41142;SHT31;63666;52.284;20.890;2023-05-19T02:51:29;21.57;46.00
41142;SHT31;63666;52.284;20.890;2023-05-19T02:54:02;21.53;46.02
41142;SHT31;63666;52.284;20.890;2023-05-19T02:56:38;21.53;46.06
41142;SHT31;63666;52.284;20.890;2023-05-19T02:59:14;21.53;46.09
41142;SHT31;63666;52.284;20.890;2023-05-19T03:01:49;21.52;46.08
41142;SHT31;63666;52.284;20.890;2023-05-19T03:04:27;21.50;46.15
41142;SHT31;63666;52.284;20.890;2023-05-19T03:07:00;21.49;46.18
41142;SHT31;63666;52.284;20.890;2023-05-19T03:09:36;21.52;46.08
41142;SHT31;63666;52.284;20.890;2023-05-19T03:12:12;21.51;46.09
41142;SHT31;63666;52.284;20.890;2023-05-19T03:14:46;21.49;46.16
41142;SHT31;63666;52.284;20.890;2023-05-19T03:17:22;21.45;46.22
41142;SHT31;63666;52.284;20.890;2023-05-19T03:20:03;21.45;46.22
41142;SHT31;63666;52.284;20.890;2023-05-19T03:22:39;21.44;46.25
41142;SHT31;63666;52.284;20.890;2023-05-19T03:25:22;21.44;46.25
41142;SHT31;63666;52.284;20.890;2023-05-19T03:27:56;21.42;46.28
41142;SHT31;63666;52.284;20.890;2023-05-19T03:30:30;21.43;46.28
41142;SHT31;63666;52.284;20.890;2023-05-19T03:33:06;21.43;46.28
41142;SHT31;63666;52.284;20.890;2023-05-19T03:35:41;21.42;46.29
41142;SHT31;63666;52.284;20.890;2023-05-19T03:38:17;21.41;46.30
41142;SHT31;63666;52.284;20.890;2023-05-19T03:40:51;21.41;46.33
41142;SHT31;63666;52.284;20.890;2023-05-19T03:43:26;21.41;46.31
41142;SHT31;63666;52.284;20.890;2023-05-19T03:45:59;21.40;46.36
41142;SHT31;63666;52.284;20.890;2023-05-19T03:48:33;21.40;46.40
41142;SHT31;63666;52.284;20.890;2023-05-19T03:51:06;21.41;46.31
41142;SHT31;63666;52.284;20.890;2023-05-19T03:53:40;21.41;46.32
41142;SHT31;63666;52.284;20.890;2023-05-19T03:56:15;21.41;46.35
41142;SHT31;63666;52.284;20.890;2023-05-19T03:58:52;21.39;46.39
41142;SHT31;63666;52.284;20.890;2023-05-19T04:01:26;21.40;46.40
41142;SHT31;63666;52.284;20.890;2023-05-19T04:04:20;21.41;46.39
41142;SHT31;63666;52.284;20.890;2023-05-19T04:07:14;21.39;46.48
41142;SHT31;63666;52.284;20.890;2023-05-19T04:09:47;21.38;46.43
41142;SHT31;63666;52.284;20.890;2023-05-19T04:12:21;21.37;46.43
41142;SHT31;63666;52.284;20.890;2023-05-19T04:14:56;21.38;46.42
41142;SHT31;63666;52.284;20.890;2023-05-19T04:17:31;21.39;46.44
41142;SHT31;63666;52.284;20.890;2023-05-19T04:20:10;21.38;46.42
41142;SHT31;63666;52.284;20.890;2023-05-19T04:22:44;21.37;46.47
41142;SHT31;63666;52.284;20.890;2023-05-19T04:25:18;21.36;46.47
41142;SHT31;63666;52.284;20.890;2023-05-19T04:27:55;21.36;46.50
41142;SHT31;63666;52.284;20.890;2023-05-19T04:30:30;21.36;46.50
41142;SHT31;63666;52.284;20.890;2023-05-19T04:33:05;21.35;46.53
41142;SHT31;63666;52.284;20.890;2023-05-19T04:35:41;21.35;46.50
41142;SHT31;63666;52.284;20.890;2023-05-19T04:38:14;21.34;46.51
41142;SHT31;63666;52.284;20.890;2023-05-19T04:40:50;21.34;46.50
41142;SHT31;63666;52.284;20.890;2023-05-19T04:43:29;21.35;46.50
41142;SHT31;63666;52.284;20.890;2023-05-19T04:46:03;21.33;46.50
41142;SHT31;63666;52.284;20.890;2023-05-19T04:48:43;21.34;46.51
41142;SHT31;63666;52.284;20.890;2023-05-19T04:51:18;21.33;46.51
41142;SHT31;63666;52.284;20.890;2023-05-19T04:53:58;21.34;46.48
41142;SHT31;63666;52.284;20.890;2023-05-19T04:56:34;21.33;46.49
41142;SHT31;63666;52.284;20.890;2023-05-19T04:59:08;21.33;46.50
41142;SHT31;63666;52.284;20.890;2023-05-19T05:01:43;21.32;46.49
41142;SHT31;63666;52.284;20.890;2023-05-19T05:04:16;21.32;46.48
41142;SHT31;63666;52.284;20.890;2023-05-19T05:06:50;21.34;46.47
41142;SHT31;63666;52.284;20.890;2023-05-19T05:09:27;21.33;46.52
41142;SHT31;63666;52.284;20.890;2023-05-19T05:12:01;21.34;46.69
41142;SHT31;63666;52.284;20.890;2023-05-19T05:14:37;21.32;47.10
41142;SHT31;63666;52.284;20.890;2023-05-19T05:17:12;21.32;47.60
41142;SHT31;63666;52.284;20.890;2023-05-19T05:19:47;21.30;47.54
41142;SHT31;63666;52.284;20.890;2023-05-19T05:22:24;21.31;47.53
41142;SHT31;63666;52.284;20.890;2023-05-19T05:25:01;21.30;47.47
41142;SHT31;63666;52.284;20.890;2023-05-19T05:27:38;21.31;47.38
41142;SHT31;63666;52.284;20.890;2023-05-19T05:30:12;21.30;47.37
41142;SHT31;63666;52.284;20.890;2023-05-19T05:32:47;21.31;47.46
41142;SHT31;63666;52.284;20.890;2023-05-19T05:35:23;21.31;47.41
41142;SHT31;63666;52.284;20.890;2023-05-19T05:37:58;21.31;47.37
41142;SHT31;63666;52.284;20.890;2023-05-19T05:40:32;21.31;47.41
41142;SHT31;63666;52.284;20.890;2023-05-19T05:43:10;21.30;47.44
41142;SHT31;63666;52.284;20.890;2023-05-19T05:45:43;21.31;47.45
41142;SHT31;63666;52.284;20.890;2023-05-19T05:48:21;21.30;47.50
41142;SHT31;63666;52.284;20.890;2023-05-19T05:50:56;21.31;47.28
41142;SHT31;63666;52.284;20.890;2023-05-19T05:53:32;21.32;47.30
41142;SHT31;63666;52.284;20.890;2023-05-19T05:56:13;21.31;47.20
41142;SHT31;63666;52.284;20.890;2023-05-19T05:58:48;21.33;47.76
41142;SHT31;63666;52.284;20.890;2023-05-19T06:01:24;21.32;47.95
41142;SHT31;63666;52.284;20.890;2023-05-19T06:04:03;21.32;47.67
41142;SHT31;63666;52.284;20.890;2023-05-19T06:06:37;21.33;47.52
41142;SHT31;63666;52.284;20.890;2023-05-19T06:09:11;21.31;47.41
41142;SHT31;63666;52.284;20.890;2023-05-19T06:11:45;21.32;47.40
41142;SHT31;63666;52.284;20.890;2023-05-19T06:14:18;21.32;47.38
41142;SHT31;63666;52.284;20.890;2023-05-19T06:16:54;21.32;47.52
41142;SHT31;63666;52.284;20.890;2023-05-19T06:19:28;21.32;47.62
41142;SHT31;63666;52.284;20.890;2023-05-19T06:22:02;21.35;48.30
41142;SHT31;63666;52.284;20.890;2023-05-19T06:24:36;21.36;48.62
41142;SHT31;63666;52.284;20.890;2023-05-19T06:27:11;21.35;48.49
41142;SHT31;63666;52.284;20.890;2023-05-19T06:29:44;21.35;48.32
41142;SHT31;63666;52.284;20.890;2023-05-19T06:32:19;21.36;48.10
41142;SHT31;63666;52.284;20.890;2023-05-19T06:34:53;21.34;47.98
41142;SHT31;63666;52.284;20.890;2023-05-19T06:37:27;21.33;47.94
41142;SHT31;63666;52.284;20.890;2023-05-19T06:40:01;21.33;48.00
41142;SHT31;63666;52.284;20.890;2023-05-19T06:42:36;21.34;48.25
41142;SHT31;63666;52.284;20.890;2023-05-19T06:45:12;21.36;49.06
41142;SHT31;63666;52.284;20.890;2023-05-19T06:47:50;21.38;49.45
41142;SHT31;63666;52.284;20.890;2023-05-19T06:50:27;21.36;49.10
41142;SHT31;63666;52.284;20.890;2023-05-19T06:53:05;21.36;48.80
41142;SHT31;63666;52.284;20.890;2023-05-19T06:55:39;21.36;48.81
41142;SHT31;63666;52.284;20.890;2023-05-19T06:58:27;21.36;48.51
41142;SHT31;63666;52.284;20.890;2023-05-19T07:01:01;21.36;48.32
41142;SHT31;63666;52.284;20.890;2023-05-19T07:03:35;21.36;48.18
41142;SHT31;63666;52.284;20.890;2023-05-19T07:06:10;21.36;48.45
41142;SHT31;63666;52.284;20.890;2023-05-19T07:08:44;21.35;48.45
41142;SHT31;63666;52.284;20.890;2023-05-19T07:11:19;21.34;48.22
41142;SHT31;63666;52.284;20.890;2023-05-19T07:13:52;21.34;48.10
41142;SHT31;63666;52.284;20.890;2023-05-19T07:16:26;21.34;48.03
41142;SHT31;63666;52.284;20.890;2023-05-19T07:19:01;21.34;47.96
41142;SHT31;63666;52.284;20.890;2023-05-19T07:21:35;21.35;47.90
41142;SHT31;63666;52.284;20.890;2023-05-19T07:24:11;21.33;47.90
41142;SHT31;63666;52.284;20.890;2023-05-19T07:26:45;21.38;48.40
41142;SHT31;63666;52.284;20.890;2023-05-19T07:29:20;21.64;48.49
41142;SHT31;63666;52.284;20.890;2023-05-19T07:31:56;21.75;47.49
41142;SHT31;63666;52.284;20.890;2023-05-19T07:34:31;21.82;47.42
41142;SHT31;63666;52.284;20.890;2023-05-19T07:37:09;21.85;47.19
41142;SHT31;63666;52.284;20.890;2023-05-19T07:39:43;21.89;46.91
41142;SHT31;63666;52.284;20.890;2023-05-19T07:42:19;21.94;46.75
41142;SHT31;63666;52.284;20.890;2023-05-19T07:44:54;21.99;46.88
41142;SHT31;63666;52.284;20.890;2023-05-19T07:47:30;22.03;46.88
41142;SHT31;63666;52.284;20.890;2023-05-19T07:50:04;22.01;47.25
41142;SHT31;63666;52.284;20.890;2023-05-19T07:52:39;21.97;47.42
41142;SHT31;63666;52.284;20.890;2023-05-19T07:55:13;21.99;47.30
41142;SHT31;63666;52.284;20.890;2023-05-19T07:57:47;21.99;47.17
41142;SHT31;63666;52.284;20.890;2023-05-19T08:00:21;21.98;47.24
41142;SHT31;63666;52.284;20.890;2023-05-19T08:02:55;21.97;47.28
41142;SHT31;63666;52.284;20.890;2023-05-19T08:05:29;21.95;47.32
41142;SHT31;63666;52.284;20.890;2023-05-19T08:08:06;21.94;47.43
41142;SHT31;63666;52.284;20.890;2023-05-19T08:10:40;22.13;46.86
41142;SHT31;63666;52.284;20.890;2023-05-19T08:13:14;22.20;46.69
41142;SHT31;63666;52.284;20.890;2023-05-19T08:15:47;22.09;46.77
41142;SHT31;63666;52.284;20.890;2023-05-19T08:18:22;22.01;46.97
41142;SHT31;63666;52.284;20.890;2023-05-19T08:20:56;22.02;46.88
41142;SHT31;63666;52.284;20.890;2023-05-19T08:23:33;22.04;46.83
41142;SHT31;63666;52.284;20.890;2023-05-19T08:26:10;22.06;46.78
41142;SHT31;63666;52.284;20.890;2023-05-19T08:28:45;22.06;46.71
41142;SHT31;63666;52.284;20.890;2023-05-19T08:31:20;22.08;46.68
41142;SHT31;63666;52.284;20.890;2023-05-19T08:33:54;22.06;46.70
41142;SHT31;63666;52.284;20.890;2023-05-19T08:36:28;22.15;46.53
41142;SHT31;63666;52.284;20.890;2023-05-19T08:39:02;22.24;46.31
41142;SHT31;63666;52.284;20.890;2023-05-19T08:41:35;22.24;46.42
41142;SHT31;63666;52.284;20.890;2023-05-19T08:44:11;22.33;46.15
41142;SHT31;63666;52.284;20.890;2023-05-19T08:46:48;22.30;46.16
41142;SHT31;63666;52.284;20.890;2023-05-19T08:49:23;22.32;46.11
41142;SHT31;63666;52.284;20.890;2023-05-19T08:52:07;22.30;46.10
41142;SHT31;63666;52.284;20.890;2023-05-19T08:54:51;22.30;46.13
41142;SHT31;63666;52.284;20.890;2023-05-19T08:57:30;22.29;46.12
41142;SHT31;63666;52.284;20.890;2023-05-19T09:00:04;22.27;46.11
41142;SHT31;63666;52.284;20.890;2023-05-19T09:02:40;22.29;46.12
41142;SHT31;63666;52.284;20.890;2023-05-19T09:05:34;22.28;46.11
41142;SHT31;63666;52.284;20.890;2023-05-19T09:08:09;22.30;46.06
41142;SHT31;63666;52.284;20.890;2023-05-19T09:10:44;22.31;46.05
41142;SHT31;63666;52.284;20.890;2023-05-19T09:13:18;22.32;46.00
41142;SHT31;63666;52.284;20.890;2023-05-19T09:15:52;22.37;45.86
41142;SHT31;63666;52.284;20.890;2023-05-19T09:18:30;22.36;45.88
41142;SHT31;63666;52.284;20.890;2023-05-19T09:21:03;22.36;45.91
41142;SHT31;63666;52.284;20.890;2023-05-19T09:23:42;22.38;45.82
41142;SHT31;63666;52.284;20.890;2023-05-19T09:26:20;22.29;46.09
41142;SHT31;63666;52.284;20.890;2023-05-19T09:28:56;22.32;46.11
41142;SHT31;63666;52.284;20.890;2023-05-19T09:31:33;22.21;46.24
41142;SHT31;63666;52.284;20.890;2023-05-19T09:34:12;22.14;46.41
41142;SHT31;63666;52.284;20.890;2023-05-19T09:36:47;21.88;47.52
41142;SHT31;63666;52.284;20.890;2023-05-19T09:39:24;21.99;47.85
41142;SHT31;63666;52.284;20.890;2023-05-19T09:41:59;22.48;45.99
41142;SHT31;63666;52.284;20.890;2023-05-19T09:44:36;22.55;45.74
41142;SHT31;63666;52.284;20.890;2023-05-19T09:47:12;22.43;45.91
41142;SHT31;63666;52.284;20.890;2023-05-19T09:49:46;22.49;45.87
41142;SHT31;63666;52.284;20.890;2023-05-19T09:52:22;22.61;45.67
41142;SHT31;63666;52.284;20.890;2023-05-19T09:54:58;22.63;45.62
41142;SHT31;63666;52.284;20.890;2023-05-19T09:57:33;22.67;45.48
41142;SHT31;63666;52.284;20.890;2023-05-19T10:00:10;22.65;45.50
41142;SHT31;63666;52.284;20.890;2023-05-19T10:02:46;22.66;45.50
41142;SHT31;63666;52.284;20.890;2023-05-19T10:05:21;22.68;45.40
41142;SHT31;63666;52.284;20.890;2023-05-19T10:07:55;22.69;45.41
41142;SHT31;63666;52.284;20.890;2023-05-19T10:10:29;22.67;45.44
41142;SHT31;63666;52.284;20.890;2023-05-19T10:13:03;22.68;45.40
41142;SHT31;63666;52.284;20.890;2023-05-19T10:15:38;22.74;45.28
41142;SHT31;63666;52.284;20.890;2023-05-19T10:18:22;22.68;45.37
41142;SHT31;63666;52.284;20.890;2023-05-19T10:20:58;22.68;45.40
41142;SHT31;63666;52.284;20.890;2023-05-19T10:23:33;22.70;45.36
41142;SHT31;63666;52.284;20.890;2023-05-19T10:26:10;22.74;45.23
41142;SHT31;63666;52.284;20.890;2023-05-19T10:28:45;22.76;45.36
41142;SHT31;63666;52.284;20.890;2023-05-19T10:31:21;22.82;45.15
41142;SHT31;63666;52.284;20.890;2023-05-19T10:33:59;22.73;45.19
41142;SHT31;63666;52.284;20.890;2023-05-19T10:36:54;22.68;45.30
41142;SHT31;63666;52.284;20.890;2023-05-19T10:39:42;22.69;45.61
41142;SHT31;63666;52.284;20.890;2023-05-19T10:42:17;22.66;45.51
41142;SHT31;63666;52.284;20.890;2023-05-19T10:45:10;22.68;45.46
41142;SHT31;63666;52.284;20.890;2023-05-19T10:47:50;22.70;45.41
41142;SHT31;63666;52.284;20.890;2023-05-19T10:50:26;22.71;45.38
41142;SHT31;63666;52.284;20.890;2023-05-19T10:53:07;22.74;45.31
41142;SHT31;63666;52.284;20.890;2023-05-19T10:55:49;22.75;45.30
41142;SHT31;63666;52.284;20.890;2023-05-19T10:58:37;22.78;45.24
41142;SHT31;63666;52.284;20.890;2023-05-19T11:01:20;22.77;45.27
41142;SHT31;63666;52.284;20.890;2023-05-19T11:04:03;22.78;45.23
41142;SHT31;63666;52.284;20.890;2023-05-19T11:06:42;22.81;45.13
41142;SHT31;63666;52.284;20.890;2023-05-19T11:09:23;22.84;45.11
41142;SHT31;63666;52.284;20.890;2023-05-19T11:12:10;22.83;45.13
41142;SHT31;63666;52.284;20.890;2023-05-19T11:14:43;22.83;45.12
41142;SHT31;63666;52.284;20.890;2023-05-19T11:17:17;22.76;45.27
41142;SHT31;63666;52.284;20.890;2023-05-19T11:19:52;22.70;45.40
41142;SHT31;63666;52.284;20.890;2023-05-19T11:22:27;22.70;45.40
41142;SHT31;63666;52.284;20.890;2023-05-19T11:25:03;22.72;45.41
41142;SHT31;63666;52.284;20.890;2023-05-19T11:27:37;22.72;45.37
41142;SHT31;63666;52.284;20.890;2023-05-19T11:30:13;22.73;45.39
41142;SHT31;63666;52.284;20.890;2023-05-19T11:32:48;22.70;45.43
41142;SHT31;63666;52.284;20.890;2023-05-19T11:35:21;22.75;45.24
41142;SHT31;63666;52.284;20.890;2023-05-19T11:37:55;22.70;45.33
41142;SHT31;63666;52.284;20.890;2023-05-19T11:40:32;22.63;45.46
41142;SHT31;63666;52.284;20.890;2023-05-19T11:43:05;22.58;45.57
41142;SHT31;63666;52.284;20.890;2023-05-19T11:45:39;22.55;45.59
41142;SHT31;63666;52.284;20.890;2023-05-19T11:48:13;22.57;45.55
41142;SHT31;63666;52.284;20.890;2023-05-19T11:50:46;22.52;45.61
41142;SHT31;63666;52.284;20.890;2023-05-19T11:53:20;22.54;45.57
41142;SHT31;63666;52.284;20.890;2023-05-19T11:56:03;22.51;45.60
41142;SHT31;63666;52.284;20.890;2023-05-19T11:58:35;22.49;45.63
41142;SHT31;63666;52.284;20.890;2023-05-19T12:01:09;22.49;45.61
41142;SHT31;63666;52.284;20.890;2023-05-19T12:03:45;22.51;45.64
41142;SHT31;63666;52.284;20.890;2023-05-19T12:06:20;22.63;45.55
41142;SHT31;63666;52.284;20.890;2023-05-19T12:08:56;22.63;45.49
41142;SHT31;63666;52.284;20.890;2023-05-19T12:11:32;22.73;45.31
41142;SHT31;63666;52.284;20.890;2023-05-19T12:14:10;22.73;45.38
41142;SHT31;63666;52.284;20.890;2023-05-19T12:16:44;22.75;45.30
41142;SHT31;63666;52.284;20.890;2023-05-19T12:19:17;22.75;45.25
41142;SHT31;63666;52.284;20.890;2023-05-19T12:21:54;22.74;45.25
41142;SHT31;63666;52.284;20.890;2023-05-19T12:24:27;22.78;45.22
41142;SHT31;63666;52.284;20.890;2023-05-19T12:27:08;22.78;45.20
41142;SHT31;63666;52.284;20.890;2023-05-19T12:29:47;22.77;45.22
41142;SHT31;63666;52.284;20.890;2023-05-19T12:32:23;22.79;45.28
41142;SHT31;63666;52.284;20.890;2023-05-19T12:34:57;22.85;45.09
41142;SHT31;63666;52.284;20.890;2023-05-19T12:37:34;22.80;45.15
41142;SHT31;63666;52.284;20.890;2023-05-19T12:40:13;22.77;45.25
41142;SHT31;63666;52.284;20.890;2023-05-19T12:42:47;22.78;45.22
41142;SHT31;63666;52.284;20.890;2023-05-19T12:45:26;22.78;45.21
41142;SHT31;63666;52.284;20.890;2023-05-19T12:48:02;22.81;45.15
41142;SHT31;63666;52.284;20.890;2023-05-19T12:50:46;22.81;45.18
41142;SHT31;63666;52.284;20.890;2023-05-19T12:53:26;22.73;45.27
41142;SHT31;63666;52.284;20.890;2023-05-19T12:56:02;22.66;45.43
41142;SHT31;63666;52.284;20.890;2023-05-19T12:58:51;22.62;45.55
41142;SHT31;63666;52.284;20.890;2023-05-19T13:01:25;22.61;45.58
41142;SHT31;63666;52.284;20.890;2023-05-19T13:04:00;22.61;45.70
41142;SHT31;63666;52.284;20.890;2023-05-19T13:06:34;22.65;45.62
41142;SHT31;63666;52.284;20.890;2023-05-19T13:09:10;22.69;45.49
41142;SHT31;63666;52.284;20.890;2023-05-19T13:11:46;22.72;45.47
41142;SHT31;63666;52.284;20.890;2023-05-19T13:14:22;22.71;45.55
41142;SHT31;63666;52.284;20.890;2023-05-19T13:16:55;22.71;45.52
41142;SHT31;63666;52.284;20.890;2023-05-19T13:19:30;22.74;45.48
41142;SHT31;63666;52.284;20.890;2023-05-19T13:22:04;22.74;45.42
41142;SHT31;63666;52.284;20.890;2023-05-19T13:24:40;22.77;45.37
41142;SHT31;63666;52.284;20.890;2023-05-19T13:27:13;22.80;45.35
41142;SHT31;63666;52.284;20.890;2023-05-19T13:29:50;22.82;45.30
41142;SHT31;63666;52.284;20.890;2023-05-19T13:32:24;22.85;45.27
41142;SHT31;63666;52.284;20.890;2023-05-19T13:35:00;22.80;45.37
41142;SHT31;63666;52.284;20.890;2023-05-19T13:37:34;22.78;45.47
41142;SHT31;63666;52.284;20.890;2023-05-19T13:40:09;22.77;45.39
41142;SHT31;63666;52.284;20.890;2023-05-19T13:42:44;22.78;45.38
41142;SHT31;63666;52.284;20.890;2023-05-19T13:45:18;22.76;45.37
41142;SHT31;63666;52.284;20.890;2023-05-19T13:47:51;22.73;45.49
41142;SHT31;63666;52.284;20.890;2023-05-19T13:50:26;22.76;45.66
41142;SHT31;63666;52.284;20.890;2023-05-19T13:52:59;22.79;45.39
41142;SHT31;63666;52.284;20.890;2023-05-19T13:55:35;22.74;45.50
41142;SHT31;63666;52.284;20.890;2023-05-19T13:58:10;22.67;45.53
41142;SHT31;63666;52.284;20.890;2023-05-19T14:00:46;22.64;45.59
41142;SHT31;63666;52.284;20.890;2023-05-19T14:03:24;22.69;45.95
41142;SHT31;63666;52.284;20.890;2023-05-19T14:05:58;22.81;45.47
41142;SHT31;63666;52.284;20.890;2023-05-19T14:08:32;22.76;45.64
41142;SHT31;63666;52.284;20.890;2023-05-19T14:11:06;22.76;45.60
41142;SHT31;63666;52.284;20.890;2023-05-19T14:13:39;22.77;45.59
41142;SHT31;63666;52.284;20.890;2023-05-19T14:16:13;22.81;45.54
41142;SHT31;63666;52.284;20.890;2023-05-19T14:18:48;22.76;45.62
41142;SHT31;63666;52.284;20.890;2023-05-19T14:21:25;22.72;45.59
41142;SHT31;63666;52.284;20.890;2023-05-19T14:23:59;22.67;45.65
41142;SHT31;63666;52.284;20.890;2023-05-19T14:26:33;22.60;45.83
41142;SHT31;63666;52.284;20.890;2023-05-19T14:29:07;22.56;45.94
41142;SHT31;63666;52.284;20.890;2023-05-19T14:31:43;22.53;45.94
41142;SHT31;63666;52.284;20.890;2023-05-19T14:34:17;22.54;45.90
41142;SHT31;63666;52.284;20.890;2023-05-19T14:36:50;22.53;45.92
41142;SHT31;63666;52.284;20.890;2023-05-19T14:39:27;22.51;45.97
41142;SHT31;63666;52.284;20.890;2023-05-19T14:42:03;22.47;46.04
41142;SHT31;63666;52.284;20.890;2023-05-19T14:44:37;22.46;46.05
41142;SHT31;63666;52.284;20.890;2023-05-19T14:47:16;22.45;46.06
41142;SHT31;63666;52.284;20.890;2023-05-19T14:49:52;22.42;46.13
41142;SHT31;63666;52.284;20.890;2023-05-19T14:52:29;22.39;46.31
41142;SHT31;63666;52.284;20.890;2023-05-19T14:55:03;22.41;46.31
41142;SHT31;63666;52.284;20.890;2023-05-19T14:57:39;22.39;46.29
41142;SHT31;63666;52.284;20.890;2023-05-19T15:00:17;22.39;46.32
41142;SHT31;63666;52.284;20.890;2023-05-19T15:02:55;22.46;46.71
41142;SHT31;63666;52.284;20.890;2023-05-19T15:05:31;22.61;46.80
41142;SHT31;63666;52.284;20.890;2023-05-19T15:08:08;22.55;46.39
41142;SHT31;63666;52.284;20.890;2023-05-19T15:10:41;22.55;46.41
41142;SHT31;63666;52.284;20.890;2023-05-19T15:13:19;22.58;46.37
41142;SHT31;63666;52.284;20.890;2023-05-19T15:15:56;22.60;46.36
41142;SHT31;63666;52.284;20.890;2023-05-19T15:18:44;22.61;46.28
41142;SHT31;63666;52.284;20.890;2023-05-19T15:21:20;22.63;46.39
41142;SHT31;63666;52.284;20.890;2023-05-19T15:23:56;22.63;46.37
41142;SHT31;63666;52.284;20.890;2023-05-19T15:26:32;22.54;46.57
41142;SHT31;63666;52.284;20.890;2023-05-19T15:29:06;22.50;46.72
41142;SHT31;63666;52.284;20.890;2023-05-19T15:31:43;22.49;46.73
41142;SHT31;63666;52.284;20.890;2023-05-19T15:34:16;22.59;46.77
41142;SHT31;63666;52.284;20.890;2023-05-19T15:36:50;22.53;46.97
41142;SHT31;63666;52.284;20.890;2023-05-19T15:39:25;22.68;46.68
41142;SHT31;63666;52.284;20.890;2023-05-19T15:42:01;22.72;46.43
41142;SHT31;63666;52.284;20.890;2023-05-19T15:44:35;22.67;46.47
41142;SHT31;63666;52.284;20.890;2023-05-19T15:47:09;22.71;46.40
41142;SHT31;63666;52.284;20.890;2023-05-19T15:49:44;22.68;46.48
41142;SHT31;63666;52.284;20.890;2023-05-19T15:52:17;22.70;46.51
41142;SHT31;63666;52.284;20.890;2023-05-19T15:54:53;22.66;46.37
41142;SHT31;63666;52.284;20.890;2023-05-19T15:57:27;22.82;45.99
41142;SHT31;63666;52.284;20.890;2023-05-19T16:00:01;22.91;45.75
41142;SHT31;63666;52.284;20.890;2023-05-19T16:02:37;22.87;45.90
41142;SHT31;63666;52.284;20.890;2023-05-19T16:05:12;22.86;46.06
41142;SHT31;63666;52.284;20.890;2023-05-19T16:07:46;22.76;46.18
41142;SHT31;63666;52.284;20.890;2023-05-19T16:10:25;22.70;46.32